createdAt,value
2023-05-10T00:00:16.067Z,100198.44
2023-05-10T00:02:45.123Z,100190.66
2023-05-10T00:05:14.359Z,100192.63
2023-05-10T00:07:45.509Z,100204.66
2023-05-10T00:10:13.620Z,100200.91
2023-05-10T00:12:41.568Z,100201.75
2023-05-10T00:15:10.880Z,100201.06
2023-05-10T00:17:38.877Z,100194.84
2023-05-10T00:20:08.073Z,100200.16
2023-05-10T00:22:37.461Z,100201.03
2023-05-10T00:25:06.414Z,100199.97
2023-05-10T00:27:34.313Z,100189.44
2023-05-10T00:30:02.170Z,100193.53
2023-05-10T00:32:30.775Z,100191.78
2023-05-10T00:34:59.030Z,100190.81
2023-05-10T00:37:27.078Z,100190.81
2023-05-10T00:39:56.355Z,100190.66
2023-05-10T00:42:24.385Z,100190.00
2023-05-10T00:44:54.631Z,100192.66
2023-05-10T00:47:22.956Z,100185.38
2023-05-10T00:49:51.032Z,100179.50
2023-05-10T00:52:18.987Z,100191.00
2023-05-10T00:54:47.169Z,100193.56
2023-05-10T00:57:16.520Z,100192.75
2023-05-10T00:59:44.799Z,100191.78
2023-05-10T01:02:14.168Z,100187.38
2023-05-10T01:04:42.741Z,100185.69
2023-05-10T01:07:11.500Z,100184.88
2023-05-10T01:09:39.510Z,100192.97
2023-05-10T01:12:08.915Z,100192.88
2023-05-10T01:14:38.616Z,100197.22
2023-05-10T01:17:10.363Z,100188.41
2023-05-10T01:19:39.080Z,100195.34
2023-05-10T01:22:16.504Z,100196.28
2023-05-10T01:25:19.180Z,100193.53
2023-05-10T01:28:09.822Z,100182.53
2023-05-10T01:31:09.533Z,100180.84
2023-05-10T01:33:45.411Z,100193.09
2023-05-10T01:36:26.924Z,100190.00
2023-05-10T01:39:01.352Z,100197.56
2023-05-10T01:41:42.048Z,100196.69
2023-05-10T01:44:19.551Z,100193.88
2023-05-10T01:46:52.845Z,100192.56
2023-05-10T01:49:27.608Z,100189.34
2023-05-10T01:52:00.070Z,100202.38
2023-05-10T01:54:30.543Z,100192.56
2023-05-10T01:57:05.208Z,100199.66
2023-05-10T01:59:40.155Z,100197.22
2023-05-10T02:02:12.740Z,100195.28
2023-05-10T02:04:43.326Z,100190.09
2023-05-10T02:07:12.692Z,100197.16
2023-05-10T02:09:40.963Z,100196.19
2023-05-10T02:12:10.463Z,100201.53
2023-05-10T02:14:39.846Z,100198.34
2023-05-10T02:17:10.854Z,100197.91
2023-05-10T02:19:41.111Z,100197.31
2023-05-10T02:22:11.913Z,100208.41
2023-05-10T02:24:41.873Z,100204.97
2023-05-10T02:27:12.406Z,100213.09
2023-05-10T02:29:41.123Z,100212.84
2023-05-10T02:32:11.029Z,100213.22
2023-05-10T02:34:40.858Z,100216.63
2023-05-10T02:37:11.204Z,100212.31
2023-05-10T02:39:44.685Z,100216.69
2023-05-10T02:42:18.953Z,100220.38
2023-05-10T02:44:51.035Z,100223.91
2023-05-10T02:47:19.933Z,100215.81
2023-05-10T02:49:48.244Z,100222.69
2023-05-10T02:52:28.394Z,100219.53
2023-05-10T02:55:00.504Z,100219.34
2023-05-10T02:57:32.269Z,100217.78
2023-05-10T03:00:01.153Z,100226.38
2023-05-10T03:02:31.437Z,100225.25
2023-05-10T03:04:59.501Z,100221.84
2023-05-10T03:07:29.257Z,100213.16
2023-05-10T03:09:57.348Z,100217.28
2023-05-10T03:12:34.100Z,100213.66
2023-05-10T03:15:12.569Z,100217.13
2023-05-10T03:17:48.860Z,100215.16
2023-05-10T03:20:24.487Z,100221.06
2023-05-10T03:22:57.364Z,100217.59
2023-05-10T03:25:26.647Z,100219.34
2023-05-10T03:27:56.543Z,100227.31
2023-05-10T03:30:26.407Z,100232.66
2023-05-10T03:32:54.408Z,100235.13
2023-05-10T03:35:22.548Z,100235.19
2023-05-10T03:37:51.158Z,100241.00
2023-05-10T03:40:20.633Z,100243.72
2023-05-10T03:42:48.681Z,100241.00
2023-05-10T03:45:16.831Z,100252.25
2023-05-10T03:47:44.764Z,100253.25
2023-05-10T03:50:12.690Z,100242.88
2023-05-10T03:52:41.097Z,100252.44
2023-05-10T03:55:09.574Z,100247.22
2023-05-10T03:57:38.784Z,100250.69
2023-05-10T04:00:09.203Z,100248.75
2023-05-10T04:02:45.939Z,100260.09
2023-05-10T04:05:19.413Z,100260.03
2023-05-10T04:07:48.118Z,100261.00
2023-05-10T04:10:17.417Z,100254.84
2023-05-10T04:12:47.022Z,100251.38
2023-05-10T04:15:14.922Z,100249.63
2023-05-10T04:17:42.859Z,100250.50
2023-05-10T04:20:11.915Z,100247.84
2023-05-10T04:22:40.249Z,100255.66
2023-05-10T04:25:09.048Z,100252.13
2023-05-10T04:27:37.240Z,100257.16
2023-05-10T04:30:08.123Z,100252.78
2023-05-10T04:32:36.059Z,100252.81
2023-05-10T04:35:04.579Z,100260.03
2023-05-10T04:37:32.473Z,100265.47
2023-05-10T04:40:00.972Z,100255.94
2023-05-10T04:42:29.000Z,100261.19
2023-05-10T04:44:56.921Z,100263.84
2023-05-10T04:47:26.227Z,100266.31
2023-05-10T04:49:54.180Z,100267.88
2023-05-10T04:52:22.079Z,100270.50
2023-05-10T04:54:50.190Z,100273.91
2023-05-10T04:57:18.039Z,100272.09
2023-05-10T04:59:46.154Z,100270.09
2023-05-10T05:02:14.529Z,100273.34
2023-05-10T05:04:43.826Z,100271.69
2023-05-10T05:07:11.763Z,100283.03
2023-05-10T05:09:39.637Z,100288.16
2023-05-10T05:12:07.914Z,100289.81
2023-05-10T05:14:35.827Z,100293.28
2023-05-10T05:17:04.801Z,100287.59
2023-05-10T05:19:33.454Z,100287.47
2023-05-10T05:22:02.717Z,100299.78
2023-05-10T05:24:30.881Z,100297.91
2023-05-10T05:26:58.773Z,100306.84
2023-05-10T05:29:26.887Z,100305.97
2023-05-10T05:31:55.630Z,100309.59
2023-05-10T05:34:23.864Z,100314.78
2023-05-10T05:36:52.560Z,100315.81
2023-05-10T05:39:21.940Z,100313.00
2023-05-10T05:41:49.876Z,100318.56
2023-05-10T05:44:17.892Z,100318.69
2023-05-10T05:46:45.826Z,100323.94
2023-05-10T05:49:13.701Z,100326.47
2023-05-10T05:51:56.115Z,100329.69
2023-05-10T05:54:25.708Z,100325.94
2023-05-10T05:56:56.512Z,100329.19
2023-05-10T05:59:24.826Z,100338.00
2023-05-10T06:01:53.543Z,100342.13
2023-05-10T06:04:21.712Z,100342.81
2023-05-10T06:06:49.963Z,100342.66
2023-05-10T06:09:18.203Z,100334.75
2023-05-10T06:11:47.838Z,100342.38
2023-05-10T06:14:16.080Z,100352.03
2023-05-10T06:16:44.119Z,100347.41
2023-05-10T06:19:12.195Z,100359.44
2023-05-10T06:21:40.325Z,100353.31
2023-05-10T06:24:08.697Z,100358.00
2023-05-10T06:26:36.928Z,100352.44
2023-05-10T06:29:06.459Z,100349.63
2023-05-10T06:31:34.552Z,100364.38
2023-05-10T06:34:02.597Z,100366.88
2023-05-10T06:36:30.796Z,100372.22
2023-05-10T06:38:58.737Z,100367.31
2023-05-10T06:41:26.797Z,100376.84
2023-05-10T06:43:54.922Z,100379.53
2023-05-10T06:46:24.548Z,100382.88
2023-05-10T06:48:52.880Z,100382.88
2023-05-10T06:51:22.187Z,100377.13
2023-05-10T06:53:50.087Z,100385.75
2023-05-10T06:56:17.978Z,100392.03
2023-05-10T06:58:45.963Z,100383.47
2023-05-10T07:01:13.950Z,100387.97
2023-05-10T07:03:43.162Z,100390.00
2023-05-10T07:06:21.572Z,100393.31
2023-05-10T07:08:58.982Z,100383.81
2023-05-10T07:11:26.762Z,100385.69
2023-05-10T07:13:54.794Z,100382.16
2023-05-10T07:16:23.013Z,100390.13
2023-05-10T07:18:53.951Z,100387.28
2023-05-10T07:21:22.051Z,100394.94
2023-05-10T07:23:50.479Z,100401.22
2023-05-10T07:26:18.326Z,100393.78
2023-05-10T07:28:46.166Z,100397.13
2023-05-10T07:31:14.164Z,100397.19
2023-05-10T07:33:42.209Z,100397.91
2023-05-10T07:36:11.670Z,100394.97
2023-05-10T07:38:40.894Z,100395.19
2023-05-10T07:41:08.946Z,100402.31
2023-05-10T07:43:36.912Z,100402.59
2023-05-10T07:46:04.822Z,100408.09
2023-05-10T07:48:32.898Z,100403.78
2023-05-10T07:51:00.746Z,100414.69
2023-05-10T07:53:30.011Z,100414.59
2023-05-10T07:56:00.193Z,100420.94
2023-05-10T07:58:28.399Z,100420.47
2023-05-10T08:00:57.394Z,100422.44
2023-05-10T08:03:25.415Z,100424.72
2023-05-10T08:05:53.313Z,100415.56
2023-05-10T08:08:22.518Z,100415.19
2023-05-10T08:10:52.081Z,100424.91
2023-05-10T08:13:19.965Z,100423.44
2023-05-10T08:15:48.321Z,100427.00
2023-05-10T08:18:16.269Z,100419.84
2023-05-10T08:20:44.130Z,100423.50
2023-05-10T08:23:12.310Z,100423.22
2023-05-10T08:25:40.284Z,100428.22
2023-05-10T08:28:11.279Z,100426.44
2023-05-10T08:30:39.965Z,100430.84
2023-05-10T08:33:07.847Z,100426.13
2023-05-10T08:35:35.906Z,100430.13
2023-05-10T08:38:03.790Z,100426.56
2023-05-10T08:40:31.646Z,100430.63
2023-05-10T08:43:05.794Z,100436.13
2023-05-10T08:45:39.183Z,100438.06
2023-05-10T08:48:09.091Z,100436.38
2023-05-10T08:50:38.529Z,100436.19
2023-05-10T08:53:08.728Z,100441.34
2023-05-10T08:55:37.728Z,100438.59
2023-05-10T08:58:06.058Z,100445.97
2023-05-10T09:00:36.063Z,100441.00
2023-05-10T09:03:05.786Z,100438.31
2023-05-10T09:05:33.910Z,100440.50
2023-05-10T09:08:02.427Z,100438.09
2023-05-10T09:10:31.848Z,100443.88
2023-05-10T09:13:00.406Z,100454.09
2023-05-10T09:15:28.381Z,100450.03
2023-05-10T09:17:59.104Z,100453.88
2023-05-10T09:20:27.127Z,100462.63
2023-05-10T09:22:55.020Z,100459.00
2023-05-10T09:25:23.739Z,100462.16
2023-05-10T09:27:51.701Z,100464.56
2023-05-10T09:30:25.038Z,100467.03
2023-05-10T09:32:53.171Z,100472.81
2023-05-10T09:35:25.966Z,100475.34
2023-05-10T09:37:57.520Z,100482.06
2023-05-10T09:40:26.481Z,100490.09
2023-05-10T09:42:56.441Z,100481.34
2023-05-10T09:45:25.698Z,100490.31
2023-05-10T09:47:53.887Z,100486.00
2023-05-10T09:50:24.477Z,100487.63
2023-05-10T09:52:53.611Z,100494.50
2023-05-10T09:55:23.792Z,100483.91
2023-05-10T09:58:01.586Z,100490.19
2023-05-10T10:00:30.406Z,100489.84
2023-05-10T10:02:59.793Z,100492.28
2023-05-10T10:05:32.191Z,100495.53
2023-05-10T10:08:00.824Z,100500.44
2023-05-10T10:10:29.762Z,100495.19
2023-05-10T10:12:57.923Z,100499.16
2023-05-10T10:15:26.373Z,100500.00
2023-05-10T10:17:55.165Z,100504.72
2023-05-10T10:20:26.008Z,100495.19
2023-05-10T10:22:55.975Z,100497.56
2023-05-10T10:25:24.423Z,100490.94
2023-05-10T10:28:10.672Z,100498.66
2023-05-10T10:30:43.786Z,100494.03
2023-05-10T10:33:35.948Z,100499.97
2023-05-10T10:36:05.712Z,100498.19
2023-05-10T10:39:00.331Z,100501.00
2023-05-10T10:41:32.131Z,100504.81
2023-05-10T10:44:38.971Z,100499.47
2023-05-10T10:47:12.334Z,100507.41
2023-05-10T10:49:45.110Z,100504.19
2023-05-10T10:52:17.980Z,100502.75
2023-05-10T10:54:53.000Z,100500.06
2023-05-10T10:57:23.512Z,100509.06
2023-05-10T10:59:51.530Z,100507.16
2023-05-10T11:02:36.311Z,100498.28
2023-05-10T11:05:18.992Z,100510.72
2023-05-10T11:07:54.032Z,100499.97
2023-05-10T11:10:23.837Z,100512.22
2023-05-10T11:12:56.528Z,100515.31
2023-05-10T11:15:31.849Z,100516.72
2023-05-10T11:17:59.534Z,100520.59
2023-05-10T11:20:34.241Z,100513.53
2023-05-10T11:23:16.508Z,100515.34
2023-05-10T11:25:46.710Z,100507.09
2023-05-10T11:28:14.783Z,100514.50
2023-05-10T11:30:45.645Z,100513.13
2023-05-10T11:33:17.924Z,100519.69
2023-05-10T11:35:46.271Z,100532.66
2023-05-10T11:38:15.782Z,100531.94
2023-05-10T11:40:43.941Z,100521.44
2023-05-10T11:43:13.445Z,100517.44
2023-05-10T11:45:43.475Z,100521.72
2023-05-10T11:48:11.474Z,100516.22
2023-05-10T11:50:39.453Z,100520.44
2023-05-10T11:53:07.325Z,100528.56
2023-05-10T11:55:35.950Z,100526.94
2023-05-10T11:58:04.698Z,100522.91
2023-05-10T12:00:34.558Z,100531.47
2023-05-10T12:03:03.793Z,100521.69
2023-05-10T12:05:35.201Z,100534.34
2023-05-10T12:08:16.287Z,100531.44
2023-05-10T12:10:44.182Z,100535.84
2023-05-10T12:13:16.284Z,100536.50
2023-05-10T12:15:46.003Z,100538.56
2023-05-10T12:18:15.013Z,100533.25
2023-05-10T12:20:43.537Z,100533.81
2023-05-10T12:23:12.009Z,100535.13
2023-05-10T12:25:40.182Z,100541.66
2023-05-10T12:28:10.520Z,100546.94
2023-05-10T12:30:39.272Z,100538.97
2023-05-10T12:33:12.742Z,100539.31
2023-05-10T12:35:48.387Z,100537.59
2023-05-10T12:38:27.626Z,100542.16
2023-05-10T12:40:55.466Z,100543.50
2023-05-10T12:43:23.324Z,100549.69
2023-05-10T12:45:51.314Z,100552.72
2023-05-10T12:48:20.826Z,100544.75
2023-05-10T12:50:49.194Z,100548.91
2023-05-10T12:53:17.492Z,100548.09
2023-05-10T12:55:45.725Z,100545.69
2023-05-10T12:58:17.973Z,100546.25
2023-05-10T13:00:57.361Z,100548.88
2023-05-10T13:03:26.842Z,100540.75
2023-05-10T13:05:54.708Z,100552.84
2023-05-10T13:08:22.620Z,100554.16
2023-05-10T13:10:50.699Z,100544.75
2023-05-10T13:13:19.227Z,100547.72
2023-05-10T13:15:47.187Z,100551.72
2023-05-10T13:18:15.085Z,100553.09
2023-05-10T13:20:45.239Z,100556.94
2023-05-10T13:23:13.090Z,100549.50
2023-05-10T13:25:41.126Z,100542.91
2023-05-10T13:28:08.951Z,100551.69
2023-05-10T13:30:36.809Z,100554.44
2023-05-10T13:33:04.713Z,100539.56
2023-05-10T13:35:32.624Z,100547.34
2023-05-10T13:38:02.209Z,100543.47
2023-05-10T13:40:30.211Z,100545.44
2023-05-10T13:42:58.119Z,100548.53
2023-05-10T13:45:25.978Z,100559.69
2023-05-10T13:47:54.017Z,100560.94
2023-05-10T13:50:22.294Z,100552.69
2023-05-10T13:52:50.443Z,100555.34
2023-05-10T13:55:20.051Z,100551.69
2023-05-10T13:57:48.544Z,100555.72
2023-05-10T14:00:17.315Z,100553.91
2023-05-10T14:02:45.324Z,100557.34
2023-05-10T14:05:14.005Z,100543.09
2023-05-10T14:07:42.106Z,100550.69
2023-05-10T14:10:10.683Z,100543.03
2023-05-10T14:12:40.152Z,100541.09
2023-05-10T14:15:11.414Z,100548.72
2023-05-10T14:17:39.413Z,100554.00
2023-05-10T14:20:08.649Z,100549.44
2023-05-10T14:22:36.720Z,100548.63
2023-05-10T14:25:04.959Z,100549.28
2023-05-10T14:27:33.699Z,100547.78
2023-05-10T14:30:03.318Z,100551.59
2023-05-10T14:32:33.025Z,100549.50
2023-05-10T14:35:01.181Z,100545.22
2023-05-10T14:37:29.146Z,100547.78
2023-05-10T14:39:56.994Z,100546.06
2023-05-10T14:42:24.870Z,100548.25
2023-05-10T14:44:52.828Z,100549.00
2023-05-10T14:47:22.198Z,100542.47
2023-05-10T14:49:50.306Z,100538.66
2023-05-10T14:52:18.527Z,100541.88
2023-05-10T14:54:46.450Z,100548.69
2023-05-10T14:57:14.529Z,100545.28
2023-05-10T14:59:42.616Z,100544.91
2023-05-10T15:02:11.431Z,100541.63
2023-05-10T15:04:41.389Z,100541.78
2023-05-10T15:07:10.257Z,100550.44
2023-05-10T15:09:38.694Z,100549.09
2023-05-10T15:12:09.123Z,100551.19
2023-05-10T15:14:37.421Z,100553.41
2023-05-10T15:17:05.308Z,100549.28
2023-05-10T15:19:34.204Z,100549.84
2023-05-10T15:22:03.845Z,100553.50
2023-05-10T15:24:31.971Z,100548.97
2023-05-10T15:27:04.203Z,100555.00
2023-05-10T15:29:35.271Z,100562.53
2023-05-10T15:32:04.156Z,100552.81
2023-05-10T15:34:33.768Z,100559.16
2023-05-10T15:37:04.271Z,100553.84
2023-05-10T15:39:32.187Z,100551.13
2023-05-10T15:42:00.041Z,100554.00
2023-05-10T15:44:28.015Z,100553.59
2023-05-10T15:46:56.046Z,100564.09
2023-05-10T15:49:24.044Z,100568.00
2023-05-10T15:51:52.015Z,100563.34
2023-05-10T15:54:21.317Z,100577.81
2023-05-10T15:56:49.256Z,100567.84
2023-05-10T15:59:17.234Z,100566.34
2023-05-10T16:01:45.140Z,100579.00
2023-05-10T16:04:13.466Z,100582.50
2023-05-10T16:06:41.416Z,100579.72
2023-05-10T16:09:10.576Z,100584.44
2023-05-10T16:11:40.028Z,100587.81
2023-05-10T16:14:08.151Z,100598.22
2023-05-10T16:16:36.786Z,100594.16
2023-05-10T16:19:04.940Z,100587.91
2023-05-10T16:21:33.442Z,100592.41
2023-05-10T16:24:02.017Z,100590.66
2023-05-10T16:26:30.018Z,100591.06
2023-05-10T16:28:59.327Z,100593.31
2023-05-10T16:31:27.191Z,100585.94
2023-05-10T16:33:55.147Z,100594.69
2023-05-10T16:36:23.288Z,100588.47
2023-05-10T16:38:51.289Z,100592.72
2023-05-10T16:41:19.383Z,100593.13
2023-05-10T16:43:47.223Z,100596.47
2023-05-10T16:46:16.488Z,100596.81
2023-05-10T16:48:44.481Z,100598.44
2023-05-10T16:51:12.431Z,100597.16
2023-05-10T16:53:40.591Z,100607.56
2023-05-10T16:56:08.839Z,100613.47
2023-05-10T16:58:36.956Z,100614.50
2023-05-10T17:01:05.179Z,100614.75
2023-05-10T17:03:34.771Z,100620.50
2023-05-10T17:06:02.732Z,100622.38
2023-05-10T17:08:30.546Z,100626.22
2023-05-10T17:11:02.300Z,100624.56
2023-05-10T17:13:30.407Z,100621.25
2023-05-10T17:15:58.689Z,100626.78
2023-05-10T17:18:27.065Z,100621.38
2023-05-10T17:20:56.310Z,100622.09
2023-05-10T17:23:24.232Z,100617.13
2023-05-10T17:25:52.183Z,100617.19
2023-05-10T17:28:20.098Z,100622.38
2023-05-10T17:30:48.318Z,100629.38
2023-05-10T17:33:16.167Z,100630.88
2023-05-10T17:35:46.295Z,100631.97
2023-05-10T17:38:15.595Z,100625.34
2023-05-10T17:40:43.849Z,100634.72
2023-05-10T17:43:11.732Z,100631.75
2023-05-10T17:45:39.673Z,100635.34
2023-05-10T17:48:07.823Z,100636.13
2023-05-10T17:50:35.880Z,100635.47
2023-05-10T17:53:03.941Z,100644.00
2023-05-10T17:55:33.465Z,100642.09
2023-05-10T17:58:01.696Z,100641.63
2023-05-10T18:00:29.650Z,100637.47
2023-05-10T18:02:57.617Z,100637.91
2023-05-10T18:05:25.676Z,100649.13
2023-05-10T18:07:53.664Z,100651.09
2023-05-10T18:10:21.768Z,100647.34
2023-05-10T18:12:52.355Z,100655.03
2023-05-10T18:15:20.339Z,100655.94
2023-05-10T18:17:48.475Z,100649.88
2023-05-10T18:20:16.373Z,100658.72
2023-05-10T18:22:44.506Z,100658.44
2023-05-10T18:25:12.495Z,100657.03
2023-05-10T18:27:40.411Z,100655.31
2023-05-10T18:30:12.330Z,100660.56
2023-05-10T18:32:40.801Z,100659.78
2023-05-10T18:35:09.817Z,100660.47
2023-05-10T18:37:38.649Z,100671.44
2023-05-10T18:40:09.543Z,100668.03
2023-05-10T18:42:37.645Z,100669.94
2023-05-10T18:45:06.854Z,100667.44
2023-05-10T18:47:36.211Z,100665.97
2023-05-10T18:50:05.559Z,100677.13
2023-05-10T18:52:33.590Z,100665.91
2023-05-10T18:55:01.629Z,100670.28
2023-05-10T18:57:29.538Z,100667.56
2023-05-10T18:59:57.489Z,100664.78
2023-05-10T19:02:27.095Z,100668.19
2023-05-10T19:04:59.640Z,100669.00
2023-05-10T19:07:27.602Z,100667.69
2023-05-10T19:09:55.643Z,100667.63
2023-05-10T19:12:23.658Z,100680.00
2023-05-10T19:14:51.617Z,100664.06
2023-05-10T19:17:19.526Z,100668.25
2023-05-10T19:19:48.807Z,100670.09
2023-05-10T19:22:28.305Z,100686.00
2023-05-10T19:25:05.126Z,100691.41
2023-05-10T19:27:33.950Z,100689.09
2023-05-10T19:30:01.969Z,100694.69
2023-05-10T19:32:30.025Z,100697.09
2023-05-10T19:34:57.928Z,100700.97
2023-05-10T19:37:27.313Z,100697.69
2023-05-10T19:39:55.508Z,100693.19
2023-05-10T19:42:23.310Z,100693.41
2023-05-10T19:44:51.452Z,100701.59
2023-05-10T19:47:19.377Z,100694.94
2023-05-10T19:49:47.325Z,100690.72
2023-05-10T19:52:15.453Z,100700.59
2023-05-10T19:54:45.081Z,100693.97
2023-05-10T19:57:14.060Z,100710.44
2023-05-10T19:59:42.001Z,100705.00
2023-05-10T20:02:09.819Z,100706.13
2023-05-10T20:04:37.902Z,100717.47
2023-05-10T20:07:05.873Z,100721.59
2023-05-10T20:09:33.726Z,100716.47
2023-05-10T20:12:02.997Z,100716.38
2023-05-10T20:14:31.487Z,100710.25
2023-05-10T20:16:59.493Z,100716.28
2023-05-10T20:19:27.700Z,100709.53
2023-05-10T20:21:57.670Z,100714.78
2023-05-10T20:24:25.582Z,100711.97
2023-05-10T20:26:53.481Z,100709.38
2023-05-10T20:29:22.996Z,100718.97
2023-05-10T20:31:50.896Z,100711.06
2023-05-10T20:34:18.844Z,100717.13
2023-05-10T20:36:46.874Z,100711.16
2023-05-10T20:39:15.037Z,100722.66
2023-05-10T20:41:43.822Z,100716.94
2023-05-10T20:44:11.754Z,100719.34
2023-05-10T20:46:41.001Z,100708.94
2023-05-10T20:49:09.580Z,100716.94
2023-05-10T20:51:37.561Z,100718.09
2023-05-10T20:54:05.778Z,100725.97
2023-05-10T20:56:33.818Z,100723.13
2023-05-10T20:59:01.803Z,100720.25
2023-05-10T21:01:29.816Z,100713.06
2023-05-10T21:03:59.357Z,100717.31
2023-05-10T21:06:27.229Z,100719.38
2023-05-10T21:08:55.110Z,100720.44
2023-05-10T21:11:22.962Z,100718.59
2023-05-10T21:13:52.529Z,100723.03
2023-05-10T21:16:21.744Z,100717.91
2023-05-10T21:18:49.672Z,100718.56
2023-05-10T21:21:18.952Z,100713.81
2023-05-10T21:23:47.313Z,100719.06
2023-05-10T21:26:15.655Z,100719.78
2023-05-10T21:28:43.512Z,100711.97
2023-05-10T21:31:11.738Z,100719.00
2023-05-10T21:33:39.788Z,100723.38
2023-05-10T21:36:08.589Z,100719.06
2023-05-10T21:38:38.090Z,100725.91
2023-05-10T21:41:08.163Z,100725.06
2023-05-10T21:43:36.066Z,100722.47
2023-05-10T21:46:04.016Z,100725.22
2023-05-10T21:48:32.103Z,100724.63
2023-05-10T21:51:00.632Z,100721.31
2023-05-10T21:53:29.274Z,100721.38
2023-05-10T21:55:58.519Z,100716.94
2023-05-10T21:58:26.539Z,100713.66
2023-05-10T22:00:54.561Z,100712.84
2023-05-10T22:03:22.662Z,100721.63
2023-05-10T22:05:50.819Z,100721.69
2023-05-10T22:08:18.869Z,100713.97
2023-05-10T22:10:46.900Z,100715.00
2023-05-10T22:13:16.284Z,100724.66
2023-05-10T22:15:44.510Z,100737.91
2023-05-10T22:18:12.557Z,100738.00
2023-05-10T22:20:40.653Z,100737.06
2023-05-10T22:23:08.546Z,100742.34
2023-05-10T22:25:36.502Z,100739.63
2023-05-10T22:28:04.565Z,100734.47
2023-05-10T22:30:33.897Z,100737.16
2023-05-10T22:33:01.951Z,100744.13
2023-05-10T22:35:30.025Z,100744.97
2023-05-10T22:37:57.835Z,100749.56
2023-05-10T22:40:25.754Z,100749.75
2023-05-10T22:42:53.715Z,100749.81
2023-05-10T22:45:21.749Z,100749.28
2023-05-10T22:47:51.042Z,100743.00
2023-05-10T22:50:19.543Z,100747.78
2023-05-10T22:52:47.587Z,100750.44
2023-05-10T22:55:15.458Z,100751.09
2023-05-10T22:57:43.435Z,100751.28
2023-05-10T23:00:12.221Z,100752.41
2023-05-10T23:02:40.460Z,100750.91
2023-05-10T23:05:10.901Z,100749.25
2023-05-10T23:07:38.769Z,100764.19
2023-05-10T23:10:07.691Z,100764.03
2023-05-10T23:12:35.607Z,100767.25
2023-05-10T23:15:03.629Z,100764.63
2023-05-10T23:17:31.538Z,100766.13
2023-05-10T23:19:59.579Z,100762.50
2023-05-10T23:22:28.884Z,100769.56
2023-05-10T23:24:56.899Z,100763.53
2023-05-10T23:27:24.745Z,100763.63
2023-05-10T23:29:55.455Z,100767.13
2023-05-10T23:32:23.543Z,100765.50
2023-05-10T23:34:51.463Z,100771.72
2023-05-10T23:37:19.404Z,100765.81
2023-05-10T23:39:48.608Z,100771.13
2023-05-10T23:42:16.477Z,100771.81
2023-05-10T23:44:44.407Z,100766.03
2023-05-10T23:47:12.240Z,100765.31
2023-05-10T23:49:42.047Z,100764.31
2023-05-10T23:52:10.300Z,100766.91
2023-05-10T23:54:38.114Z,100761.59
2023-05-10T23:57:07.420Z,100763.19
2023-05-10T23:59:35.333Z,100760.56
